createdAt,value
2022-11-21T00:00:20.821Z,15.77
2022-11-21T00:02:47.509Z,16.08
2022-11-21T00:05:15.558Z,25.98
2022-11-21T00:07:42.197Z,19.58
2022-11-21T00:10:09.228Z,15.73
2022-11-21T00:12:35.796Z,18.25
2022-11-21T00:15:02.439Z,21.92
2022-11-21T00:17:29.014Z,22.27
2022-11-21T00:19:55.637Z,20.98
2022-11-21T00:22:23.521Z,24.75
2022-11-21T00:24:53.997Z,20.20
2022-11-21T00:27:20.975Z,20.20
2022-11-21T00:29:47.587Z,25.02
2022-11-21T00:32:14.101Z,20.40
2022-11-21T00:34:40.744Z,15.40
2022-11-21T00:37:07.312Z,22.90
2022-11-21T00:39:35.193Z,28.20
2022-11-21T00:42:01.777Z,22.92
2022-11-21T00:44:28.612Z,14.55
2022-11-21T00:46:55.261Z,22.00
2022-11-21T00:49:21.989Z,24.27
2022-11-21T00:51:48.594Z,21.92
2022-11-21T00:54:15.231Z,22.55
2022-11-21T00:56:43.137Z,26.08
2022-11-21T00:59:09.731Z,28.10
2022-11-21T01:01:36.374Z,27.15
2022-11-21T01:04:03.346Z,28.77
2022-11-21T01:06:29.885Z,27.00
2022-11-21T01:08:56.499Z,25.70
2022-11-21T01:11:23.234Z,34.58
2022-11-21T01:13:53.430Z,24.85
2022-11-21T01:16:22.063Z,26.40
2022-11-21T01:18:48.879Z,24.45
2022-11-21T01:21:17.912Z,25.45
2022-11-21T01:23:44.952Z,26.13
2022-11-21T01:26:14.861Z,21.35
2022-11-21T01:28:41.644Z,25.77
2022-11-21T01:31:11.527Z,22.58
2022-11-21T01:33:38.489Z,21.23
2022-11-21T01:36:10.113Z,28.45
2022-11-21T01:38:37.402Z,18.43
2022-11-21T01:41:04.359Z,27.00
2022-11-21T01:43:30.915Z,23.15
2022-11-21T01:45:58.967Z,24.40
2022-11-21T01:48:32.569Z,23.73
2022-11-21T01:51:03.365Z,19.52
2022-11-21T01:53:30.154Z,23.35
2022-11-21T01:55:57.149Z,32.53
2022-11-21T01:58:24.580Z,17.15
2022-11-21T02:00:51.867Z,23.02
2022-11-21T02:03:22.948Z,33.58
2022-11-21T02:05:54.431Z,30.13
2022-11-21T02:08:23.458Z,23.05
2022-11-21T02:10:56.740Z,28.10
2022-11-21T02:13:23.464Z,27.90
2022-11-21T02:15:50.504Z,27.52
2022-11-21T02:18:17.033Z,28.05
2022-11-21T02:20:47.777Z,21.17
2022-11-21T02:23:23.341Z,25.80
2022-11-21T02:25:51.677Z,23.58
2022-11-21T02:28:22.062Z,25.02
2022-11-21T02:30:48.892Z,33.42
2022-11-21T02:33:15.891Z,26.55
2022-11-21T02:35:42.642Z,23.52
2022-11-21T02:38:17.085Z,23.10
2022-11-21T02:40:51.530Z,27.30
2022-11-21T02:43:23.191Z,25.35
2022-11-21T02:45:50.166Z,21.23
2022-11-21T02:48:16.715Z,34.67
2022-11-21T02:50:45.336Z,24.10
2022-11-21T02:53:14.620Z,24.83
2022-11-21T02:55:41.484Z,25.52
2022-11-21T02:58:08.765Z,32.25
2022-11-21T03:00:38.211Z,39.88
2022-11-21T03:03:05.085Z,28.75
2022-11-21T03:05:32.157Z,35.67
2022-11-21T03:07:58.836Z,28.05
2022-11-21T03:10:25.418Z,31.90
2022-11-21T03:12:52.092Z,29.58
2022-11-21T03:15:18.875Z,25.17
2022-11-21T03:17:48.264Z,24.50
2022-11-21T03:20:15.276Z,25.90
2022-11-21T03:22:41.887Z,22.70
2022-11-21T03:25:09.200Z,33.28
2022-11-21T03:27:35.832Z,29.58
2022-11-21T03:30:02.483Z,28.05
2022-11-21T03:32:29.074Z,33.25
2022-11-21T03:34:57.084Z,31.85
2022-11-21T03:37:23.595Z,34.65
2022-11-21T03:39:50.150Z,43.38
2022-11-21T03:42:16.695Z,40.13
2022-11-21T03:44:43.312Z,48.10
2022-11-21T03:47:09.844Z,47.78
2022-11-21T03:49:36.444Z,46.15
2022-11-21T03:52:04.541Z,45.17
2022-11-21T03:54:31.279Z,54.47
2022-11-21T03:56:57.873Z,48.47
2022-11-21T03:59:24.505Z,49.60
2022-11-21T04:01:51.116Z,56.17
2022-11-21T04:04:18.037Z,51.80
2022-11-21T04:06:44.643Z,56.80
2022-11-21T04:09:12.716Z,56.05
2022-11-21T04:11:39.225Z,59.15
2022-11-21T04:14:05.924Z,52.78
2022-11-21T04:16:32.520Z,49.55
2022-11-21T04:18:59.125Z,56.90
2022-11-21T04:21:25.848Z,55.15
2022-11-21T04:23:52.363Z,54.97
2022-11-21T04:26:20.401Z,56.47
2022-11-21T04:28:46.953Z,59.58
2022-11-21T04:31:13.539Z,56.70
2022-11-21T04:33:40.215Z,58.90
2022-11-21T04:36:07.820Z,54.25
2022-11-21T04:38:34.438Z,54.72
2022-11-21T04:41:00.976Z,55.67
2022-11-21T04:43:30.060Z,60.28
2022-11-21T04:45:56.663Z,56.17
2022-11-21T04:48:23.199Z,50.65
2022-11-21T04:50:49.756Z,49.25
2022-11-21T04:53:16.324Z,50.42
2022-11-21T04:55:43.741Z,57.70
2022-11-21T04:58:10.315Z,49.80
2022-11-21T05:00:38.271Z,43.85
2022-11-21T05:03:05.796Z,48.10
2022-11-21T05:05:32.592Z,38.50
2022-11-21T05:07:59.226Z,31.75
2022-11-21T05:10:25.881Z,30.48
2022-11-21T05:12:59.616Z,34.05
2022-11-21T05:15:26.189Z,29.08
2022-11-21T05:17:54.171Z,28.08
2022-11-21T05:20:20.815Z,27.10
2022-11-21T05:22:51.401Z,21.95
2022-11-21T05:25:18.149Z,31.85
2022-11-21T05:27:44.672Z,34.47
2022-11-21T05:30:12.178Z,33.22
2022-11-21T05:32:38.842Z,30.85
2022-11-21T05:35:07.412Z,33.53
2022-11-21T05:37:34.036Z,31.10
2022-11-21T05:40:00.678Z,34.95
2022-11-21T05:42:27.827Z,29.42
2022-11-21T05:44:54.488Z,27.58
2022-11-21T05:47:21.097Z,27.67
2022-11-21T05:49:47.652Z,28.92
2022-11-21T05:52:15.868Z,23.95
2022-11-21T05:54:46.010Z,25.40
2022-11-21T05:57:12.774Z,30.90
2022-11-21T05:59:39.311Z,27.25
2022-11-21T06:02:05.862Z,26.90
2022-11-21T06:04:32.402Z,22.80
2022-11-21T06:06:59.087Z,28.05
2022-11-21T06:09:27.460Z,23.85
2022-11-21T06:11:54.198Z,29.50
2022-11-21T06:14:20.790Z,26.63
2022-11-21T06:16:47.344Z,21.40
2022-11-21T06:19:13.920Z,27.25
2022-11-21T06:21:40.521Z,23.50
2022-11-21T06:24:08.143Z,26.38
2022-11-21T06:26:36.129Z,24.70
2022-11-21T06:29:02.783Z,25.40
2022-11-21T06:31:29.403Z,28.95
2022-11-21T06:33:57.316Z,26.65
2022-11-21T06:36:24.600Z,22.98
2022-11-21T06:38:53.853Z,26.75
2022-11-21T06:41:22.036Z,25.15
2022-11-21T06:43:50.090Z,29.92
2022-11-21T06:46:17.132Z,29.23
2022-11-21T06:48:44.097Z,26.75
2022-11-21T06:51:13.598Z,23.65
2022-11-21T06:53:40.260Z,21.75
2022-11-21T06:56:06.943Z,24.60
2022-11-21T06:58:33.526Z,22.25
2022-11-21T07:01:05.600Z,22.90
2022-11-21T07:03:32.417Z,30.90
2022-11-21T07:05:59.970Z,21.83
2022-11-21T07:08:26.614Z,23.75
2022-11-21T07:11:23.176Z,22.98
2022-11-21T07:13:40.202Z,28.98
2022-11-21T07:16:09.910Z,22.52
2022-11-21T07:18:37.148Z,22.52
2022-11-21T07:21:05.245Z,21.70
2022-11-21T07:23:32.612Z,19.02
2022-11-21T07:26:00.416Z,22.40
2022-11-21T07:28:27.681Z,22.95
2022-11-21T07:30:55.991Z,17.85
2022-11-21T07:33:24.238Z,22.65
2022-11-21T07:35:51.257Z,22.80
2022-11-21T07:38:18.174Z,21.25
2022-11-21T07:40:44.961Z,22.35
2022-11-21T07:43:11.769Z,31.23
2022-11-21T07:45:38.523Z,24.50
2022-11-21T07:48:06.690Z,25.33
2022-11-21T07:50:34.589Z,23.48
2022-11-21T07:53:03.966Z,23.52
2022-11-21T07:55:31.352Z,24.92
2022-11-21T07:58:00.730Z,21.60
2022-11-21T08:00:28.675Z,21.45
2022-11-21T08:02:55.310Z,22.13
2022-11-21T08:05:21.948Z,26.40
2022-11-21T08:07:50.254Z,28.52
2022-11-21T08:10:17.349Z,34.13
2022-11-21T08:12:44.097Z,23.25
2022-11-21T08:15:11.295Z,24.15
2022-11-21T08:17:38.039Z,25.85
2022-11-21T08:20:05.698Z,24.63
2022-11-21T08:22:32.341Z,24.10
2022-11-21T08:25:00.356Z,24.23
2022-11-21T08:27:28.039Z,24.52
2022-11-21T08:29:54.578Z,25.25
2022-11-21T08:32:21.288Z,27.27
2022-11-21T08:34:47.868Z,25.70
2022-11-21T08:37:14.484Z,20.65
2022-11-21T08:39:41.089Z,20.23
2022-11-21T08:42:10.184Z,17.98
2022-11-21T08:44:36.730Z,20.60
2022-11-21T08:47:03.358Z,17.48
2022-11-21T08:49:30.032Z,16.75
2022-11-21T08:51:56.614Z,20.33
2022-11-21T08:54:24.365Z,17.73
2022-11-21T08:56:51.315Z,16.90
2022-11-21T08:59:19.468Z,15.38
2022-11-21T09:01:46.133Z,12.10
2022-11-21T09:04:13.014Z,15.15
2022-11-21T09:06:39.661Z,14.43
2022-11-21T09:09:06.888Z,20.80
2022-11-21T09:11:33.629Z,18.33
2022-11-21T09:14:00.250Z,16.52
2022-11-21T09:16:28.100Z,11.90
2022-11-21T09:18:54.754Z,15.25
2022-11-21T09:21:21.604Z,13.15
2022-11-21T09:23:48.264Z,16.48
2022-11-21T09:26:14.799Z,10.93
2022-11-21T09:28:41.397Z,15.32
2022-11-21T09:31:07.962Z,17.23
2022-11-21T09:33:35.990Z,12.23
2022-11-21T09:36:02.580Z,18.73
2022-11-21T09:38:29.188Z,13.75
2022-11-21T09:41:06.455Z,15.95
2022-11-21T09:43:45.755Z,18.00
2022-11-21T09:46:15.232Z,16.33
2022-11-21T09:48:51.012Z,16.55
2022-11-21T09:51:20.456Z,16.08
2022-11-21T09:53:55.373Z,13.55
2022-11-21T09:56:23.239Z,18.98
2022-11-21T09:59:06.061Z,17.25
2022-11-21T10:04:02.318Z,17.77
2022-11-21T10:06:31.386Z,14.35
2022-11-21T10:09:07.252Z,15.15
2022-11-21T10:11:48.493Z,13.82
2022-11-21T10:14:27.422Z,14.18
2022-11-21T10:17:01.734Z,16.48
2022-11-21T10:19:43.590Z,14.20
2022-11-21T10:22:30.511Z,17.37
2022-11-21T10:25:06.217Z,14.15
2022-11-21T10:27:37.271Z,12.27
2022-11-21T10:30:06.316Z,13.18
2022-11-21T10:32:39.294Z,17.13
2022-11-21T10:35:15.281Z,18.85
2022-11-21T10:37:48.055Z,17.77
2022-11-21T10:42:53.290Z,17.70
2022-11-21T10:45:20.143Z,18.83
2022-11-21T10:47:48.412Z,11.25
2022-11-21T10:50:28.650Z,12.38
2022-11-21T10:53:05.035Z,13.30
2022-11-21T10:55:31.744Z,18.50
2022-11-21T10:57:58.374Z,10.95
2022-11-21T11:00:26.651Z,9.98
2022-11-21T11:03:16.600Z,11.23
2022-11-21T11:05:55.054Z,12.45
2022-11-21T11:08:21.649Z,12.15
2022-11-21T11:11:02.107Z,14.05
2022-11-21T11:13:46.367Z,10.48
2022-11-21T11:16:16.652Z,12.45
2022-11-21T11:18:48.051Z,11.77
2022-11-21T11:21:19.902Z,11.18
2022-11-21T11:23:48.082Z,8.38
2022-11-21T11:26:21.238Z,12.27
2022-11-21T11:28:48.440Z,9.45
2022-11-21T11:31:15.068Z,9.20
2022-11-21T11:33:50.714Z,7.80
2022-11-21T11:36:31.052Z,5.60
2022-11-21T11:38:59.620Z,12.82
2022-11-21T11:41:52.523Z,10.75
2022-11-21T11:46:59.975Z,8.55
2022-11-21T11:49:33.163Z,10.43
2022-11-21T11:52:05.241Z,8.20
2022-11-21T11:54:42.805Z,7.15
2022-11-21T11:57:10.452Z,4.45
2022-11-21T11:59:42.528Z,8.20
2022-11-21T12:02:19.277Z,8.35
2022-11-21T12:04:53.509Z,6.90
2022-11-21T12:08:38.804Z,5.20
2022-11-21T12:10:18.024Z,3.53
2022-11-21T12:12:49.850Z,4.97
2022-11-21T12:15:21.942Z,7.28
2022-11-21T12:17:55.848Z,5.35
2022-11-21T12:20:27.383Z,6.60
2022-11-21T12:22:56.617Z,4.00
2022-11-21T12:25:29.034Z,8.02
2022-11-21T12:27:56.316Z,5.97
2022-11-21T12:30:52.805Z,8.05
2022-11-21T12:33:21.581Z,5.65
2022-11-21T12:36:16.814Z,5.82
2022-11-21T12:39:03.596Z,4.35
2022-11-21T12:41:35.763Z,6.63
2022-11-21T12:44:13.535Z,6.35
2022-11-21T12:46:51.172Z,6.45
2022-11-21T12:49:28.980Z,10.30
2022-11-21T12:52:15.407Z,5.40
2022-11-21T12:55:01.359Z,5.28
2022-11-21T12:57:38.050Z,6.68
2022-11-21T13:00:14.840Z,5.15
2022-11-21T13:03:01.860Z,4.35
2022-11-21T13:05:31.223Z,5.55
2022-11-21T13:08:03.581Z,6.80
2022-11-21T13:13:05.016Z,3.20
2022-11-21T13:15:38.981Z,5.07
2022-11-21T13:18:19.257Z,7.10
2022-11-21T13:20:48.567Z,5.03
2022-11-21T13:23:34.761Z,6.30
2022-11-21T13:26:23.103Z,7.05
2022-11-21T13:28:50.870Z,3.38
2022-11-21T13:31:29.255Z,6.97
2022-11-21T13:33:56.270Z,4.28
2022-11-21T13:36:37.356Z,8.38
2022-11-21T13:39:27.091Z,4.38
2022-11-21T13:42:01.145Z,5.90
2022-11-21T13:44:38.536Z,3.90
2022-11-21T13:47:11.995Z,6.85
2022-11-21T13:49:48.706Z,5.13
2022-11-21T13:52:28.344Z,5.28
2022-11-21T13:55:11.013Z,5.38
2022-11-21T13:58:02.599Z,5.28
2022-11-21T14:00:51.969Z,7.75
2022-11-21T14:04:05.063Z,4.93
2022-11-21T14:06:36.761Z,4.78
2022-11-21T14:09:22.994Z,5.63
2022-11-21T14:11:51.876Z,6.13
2022-11-21T14:14:36.334Z,6.07
2022-11-21T14:17:27.566Z,5.25
2022-11-21T14:19:56.730Z,4.55
2022-11-21T14:22:35.182Z,1.90
2022-11-21T14:25:07.707Z,4.78
2022-11-21T14:27:44.988Z,2.55
2022-11-21T14:30:29.240Z,4.40
2022-11-21T14:32:55.888Z,8.27
2022-11-21T14:35:23.922Z,4.50
2022-11-21T14:37:51.560Z,4.50
2022-11-21T14:40:22.049Z,4.78
2022-11-21T14:42:48.708Z,3.53
2022-11-21T14:45:18.029Z,3.28
2022-11-21T14:47:50.868Z,4.28
2022-11-21T14:50:28.445Z,3.40
2022-11-21T14:52:55.836Z,3.42
2022-11-21T14:55:32.225Z,5.65
2022-11-21T14:58:02.186Z,5.22
2022-11-21T15:00:58.217Z,5.35
2022-11-21T15:03:21.098Z,7.63
2022-11-21T15:06:02.556Z,4.50
2022-11-21T15:09:03.181Z,7.45
2022-11-21T15:11:18.947Z,4.32
2022-11-21T15:14:12.881Z,3.33
2022-11-21T15:16:36.279Z,2.47
2022-11-21T15:19:09.923Z,4.28
2022-11-21T15:21:36.746Z,7.15
2022-11-21T15:24:16.278Z,6.47
2022-11-21T15:26:42.932Z,5.78
2022-11-21T15:29:18.688Z,4.70
2022-11-21T15:31:46.242Z,7.00
2022-11-21T15:34:41.162Z,6.82
2022-11-21T15:37:14.854Z,5.28
2022-11-21T15:39:44.058Z,3.42
2022-11-21T15:42:29.224Z,4.28
2022-11-21T15:45:00.919Z,4.13
2022-11-21T15:47:27.736Z,2.97
2022-11-21T15:49:55.671Z,5.40
2022-11-21T15:52:22.839Z,4.35
2022-11-21T15:54:49.384Z,6.47
2022-11-21T15:57:16.947Z,5.85
2022-11-21T15:59:44.461Z,5.40
2022-11-21T16:02:13.321Z,7.65
2022-11-21T16:04:40.001Z,8.20
2022-11-21T16:07:08.033Z,5.78
2022-11-21T16:09:34.656Z,5.05
2022-11-21T16:12:01.440Z,7.30
2022-11-21T16:14:28.048Z,4.22
2022-11-21T16:16:54.599Z,1.92
2022-11-21T16:19:21.299Z,5.03
2022-11-21T16:21:47.907Z,10.00
2022-11-21T16:24:15.876Z,8.40
2022-11-21T16:26:42.375Z,6.68
2022-11-21T16:29:10.472Z,3.83
2022-11-21T16:31:37.067Z,11.18
2022-11-21T16:34:03.689Z,5.97
2022-11-21T16:36:31.569Z,5.47
2022-11-21T16:39:03.737Z,7.93
2022-11-21T16:41:38.977Z,9.77
2022-11-21T16:44:12.308Z,8.45
2022-11-21T16:46:42.301Z,7.22
2022-11-21T16:49:09.519Z,7.22
2022-11-21T16:51:36.140Z,5.95
2022-11-21T16:54:07.360Z,7.20
2022-11-21T16:56:35.678Z,6.05
2022-11-21T16:59:03.795Z,5.38
2022-11-21T17:01:30.461Z,8.73
2022-11-21T17:03:57.115Z,5.80
2022-11-21T17:06:25.514Z,10.93
2022-11-21T17:08:52.101Z,15.77
2022-11-21T17:11:20.853Z,7.70
2022-11-21T17:13:48.963Z,6.47
2022-11-21T17:16:19.632Z,9.20
2022-11-21T17:18:47.150Z,7.47
2022-11-21T17:21:15.609Z,8.48
2022-11-21T17:23:43.468Z,7.82
2022-11-21T17:26:12.342Z,9.93
2022-11-21T17:28:45.002Z,10.95
2022-11-21T17:31:13.891Z,7.88
2022-11-21T17:33:42.519Z,6.63
2022-11-21T17:36:12.389Z,5.95
2022-11-21T17:38:39.304Z,12.13
2022-11-21T17:41:07.388Z,9.77
2022-11-21T17:43:34.206Z,8.25
2022-11-21T17:46:07.896Z,12.90
2022-11-21T17:48:38.687Z,9.57
2022-11-21T17:51:08.673Z,11.73
2022-11-21T17:53:36.956Z,9.23
2022-11-21T17:56:05.885Z,10.40
2022-11-21T17:58:33.936Z,11.30
2022-11-21T18:01:02.334Z,11.27
2022-11-21T18:03:29.604Z,9.63
2022-11-21T18:06:03.551Z,8.48
2022-11-21T18:08:32.673Z,5.65
2022-11-21T18:10:59.507Z,9.55
2022-11-21T18:13:26.672Z,5.95
2022-11-21T18:15:53.557Z,7.88
2022-11-21T18:18:20.229Z,11.88
2022-11-21T18:20:46.867Z,10.13
2022-11-21T18:23:13.563Z,8.45
2022-11-21T18:25:41.435Z,10.68
2022-11-21T18:28:08.031Z,5.57
2022-11-21T18:30:34.817Z,13.32
2022-11-21T18:33:01.399Z,7.43
2022-11-21T18:35:27.923Z,8.55
2022-11-21T18:37:55.527Z,9.30
2022-11-21T18:40:22.201Z,6.70
2022-11-21T18:42:51.318Z,12.40
2022-11-21T18:45:17.966Z,13.25
2022-11-21T18:47:44.767Z,7.22
2022-11-21T18:50:11.585Z,9.82
2022-11-21T18:52:42.235Z,9.52
2022-11-21T18:55:13.020Z,9.30
2022-11-21T18:57:39.588Z,7.85
2022-11-21T19:00:11.094Z,8.98
2022-11-21T19:02:37.716Z,9.93
2022-11-21T19:05:04.883Z,12.27
2022-11-21T19:07:31.546Z,9.38
2022-11-21T19:10:14.673Z,16.77
2022-11-21T19:12:44.816Z,12.32
2022-11-21T19:15:12.790Z,9.48
2022-11-21T19:17:39.333Z,9.27
2022-11-21T19:20:06.915Z,9.65
2022-11-21T19:22:33.704Z,14.07
2022-11-21T19:25:00.313Z,13.25
2022-11-21T19:27:27.063Z,9.60
2022-11-21T19:29:53.676Z,15.68
2022-11-21T19:32:21.776Z,9.70
2022-11-21T19:34:48.420Z,10.43
2022-11-21T19:37:15.040Z,9.32
2022-11-21T19:39:41.587Z,12.65
2022-11-21T19:42:08.352Z,9.38
2022-11-21T19:44:34.948Z,11.70
2022-11-21T19:47:01.558Z,14.18
2022-11-21T19:49:29.736Z,10.57
2022-11-21T19:51:56.574Z,10.27
2022-11-21T19:54:23.335Z,11.90
2022-11-21T19:56:49.995Z,10.93
2022-11-21T19:59:19.165Z,13.23
2022-11-21T20:01:49.645Z,14.73
2022-11-21T20:04:19.281Z,13.02
2022-11-21T20:06:47.151Z,8.85
2022-11-21T20:09:15.578Z,11.32
2022-11-21T20:11:44.161Z,10.77
2022-11-21T20:14:19.569Z,12.32
2022-11-21T20:16:49.431Z,11.70
2022-11-21T20:19:18.526Z,10.40
2022-11-21T20:21:46.950Z,16.20
2022-11-21T20:24:13.855Z,10.45
2022-11-21T20:26:41.293Z,10.90
2022-11-21T20:29:08.342Z,13.57
2022-11-21T20:31:36.857Z,8.57
2022-11-21T20:34:05.725Z,14.68
2022-11-21T20:36:33.873Z,10.07
2022-11-21T20:39:03.776Z,8.98
2022-11-21T20:41:32.360Z,12.00
2022-11-21T20:46:47.393Z,10.70
2022-11-21T20:49:14.241Z,9.65
2022-11-21T20:54:29.506Z,10.93
2022-11-21T20:56:56.291Z,10.38
2022-11-21T20:59:22.951Z,14.10
2022-11-21T21:01:49.725Z,10.95
2022-11-21T21:04:16.610Z,13.35
2022-11-21T21:06:43.192Z,8.88
2022-11-21T21:09:11.836Z,14.80
2022-11-21T21:11:55.157Z,12.50
2022-11-21T21:14:22.315Z,8.32
2022-11-21T21:16:49.461Z,11.35
2022-11-21T21:19:16.556Z,11.55
2022-11-21T21:21:43.117Z,10.18
2022-11-21T21:24:13.353Z,13.85
2022-11-21T21:26:43.878Z,10.50
2022-11-21T21:29:11.701Z,9.00
2022-11-21T21:31:38.351Z,8.32
2022-11-21T21:34:04.972Z,12.85
2022-11-21T21:36:31.556Z,11.18
2022-11-21T21:38:59.835Z,11.45
2022-11-21T21:41:28.111Z,10.35
2022-11-21T21:43:56.969Z,13.77
2022-11-21T21:46:25.540Z,14.60
2022-11-21T21:48:53.426Z,9.32
2022-11-21T21:51:22.100Z,9.07
2022-11-21T21:53:50.344Z,10.23
2022-11-21T21:56:18.483Z,7.47
2022-11-21T21:58:47.267Z,12.38
2022-11-21T22:01:18.075Z,11.40
2022-11-21T22:03:46.115Z,19.23
2022-11-21T22:06:14.669Z,8.95
2022-11-21T22:08:41.825Z,9.18
2022-11-21T22:11:10.152Z,11.75
2022-11-21T22:13:38.391Z,9.85
2022-11-21T22:16:06.533Z,15.45
2022-11-21T22:18:34.807Z,9.43
2022-11-21T22:21:01.451Z,11.55
2022-11-21T22:23:28.421Z,19.05
2022-11-21T22:25:56.291Z,7.32
2022-11-21T22:28:23.051Z,13.15
2022-11-21T22:30:54.498Z,14.95
2022-11-21T22:33:21.198Z,9.90
2022-11-21T22:35:49.124Z,10.85
2022-11-21T22:38:16.269Z,10.00
2022-11-21T22:40:42.915Z,11.05
2022-11-21T22:43:09.718Z,11.60
2022-11-21T22:45:36.303Z,13.32
2022-11-21T22:48:03.570Z,11.23
2022-11-21T22:50:30.235Z,10.50
2022-11-21T22:52:58.209Z,12.57
2022-11-21T22:55:24.960Z,7.35
2022-11-21T22:57:51.583Z,12.50
2022-11-21T23:00:18.894Z,7.25
2022-11-21T23:02:45.552Z,11.80
2022-11-21T23:05:12.159Z,10.27
2022-11-21T23:07:38.775Z,13.07
2022-11-21T23:10:08.235Z,11.98
2022-11-21T23:12:34.960Z,11.68
2022-11-21T23:15:01.568Z,7.80
2022-11-21T23:17:28.229Z,11.38
2022-11-21T23:19:54.757Z,13.05
2022-11-21T23:22:21.376Z,12.75
2022-11-21T23:24:48.069Z,8.68
2022-11-21T23:27:15.953Z,16.42
2022-11-21T23:29:42.604Z,10.10
2022-11-21T23:32:09.296Z,9.10
2022-11-21T23:34:35.887Z,9.60
2022-11-21T23:37:02.509Z,10.05
2022-11-21T23:39:29.307Z,5.25
2022-11-21T23:41:55.986Z,10.82
2022-11-21T23:44:24.027Z,10.43
2022-11-21T23:46:50.587Z,7.90
2022-11-21T23:49:17.187Z,13.85
2022-11-21T23:51:43.735Z,10.32
2022-11-21T23:54:10.389Z,9.88
2022-11-21T23:56:37.033Z,8.55
2022-11-21T23:59:03.693Z,6.30
